Terminal Aerodrome Forecast
Issued by NWS Wilmington, OH

Current Version | Previous Version | Graphics & Text | Print | Product List | Glossary On
Versions: 1 2 3 4 5 6 7 8 9 10 11 12 13 14 15 16 17
000
FTUS41 KILN 262300
TAFDAY
TAF
KDAY 262335Z 2700/2724 31008KT P6SM BKN035
     FM270600 32007KT P6SM FEW030
     FM271000 34008KT P6SM BKN025
     FM271500 33012KT P6SM BKN035
     FM271900 32014G22KT P6SM BKN040=

USA.gov is the U.S. government's official web portal to all federal, state and local government web resources and services.